Concord, New Hampshire
Current Conditions -  °F | °C
As of 5:51 PM on Saturday 25 Oct 2014 (Local Time) from KCON Reporting Station
Overcast Overcast  
Wind Chill: 60°   Ceiling: 6000
Heat Index: 60°   Visibility: 10mi
Dew Point: 41°   Wind: 7mph
Humidity: 49%   Direction: 260°W
Pressure: 29.57"   Gusts: NA
Location:  43.21°N, 71.54°W
Report Text: KCON 252151Z AUTO 26006KT 10SM OVC060 16/05 A2957 RMK AO2 SLP016 T01560050
Loading
Personal Weather Stations






























Interactive Weather Map
Tropical Storm Tracking
New forecast layout! Learn more

10-Day Weather Forecast

Advertisements
Track Severe Weather on mobile